sensor_id;sensor_type;location;lat;lon;timestamp;temperature;humidity
38488;DHT22;57384;51.986;4.458;2023-08-30T00:00:33;17.00;62.80
38488;DHT22;57384;51.986;4.458;2023-08-30T00:03:02;17.00;62.90
38488;DHT22;57384;51.986;4.458;2023-08-30T00:05:29;17.00;63.10
38488;DHT22;57384;51.986;4.458;2023-08-30T00:07:56;17.00;63.10
38488;DHT22;57384;51.986;4.458;2023-08-30T00:10:25;16.90;63.20
38488;DHT22;57384;51.986;4.458;2023-08-30T00:12:52;16.90;63.40
38488;DHT22;57384;51.986;4.458;2023-08-30T00:15:19;16.90;63.30
38488;DHT22;57384;51.986;4.458;2023-08-30T00:17:51;16.90;63.20
38488;DHT22;57384;51.986;4.458;2023-08-30T00:20:18;16.90;63.50
38488;DHT22;57384;51.986;4.458;2023-08-30T00:22:45;16.90;63.70
38488;DHT22;57384;51.986;4.458;2023-08-30T00:25:20;16.90;63.30
38488;DHT22;57384;51.986;4.458;2023-08-30T00:27:47;16.90;63.80
38488;DHT22;57384;51.986;4.458;2023-08-30T00:30:19;16.90;63.80
38488;DHT22;57384;51.986;4.458;2023-08-30T00:32:46;16.90;63.80
38488;DHT22;57384;51.986;4.458;2023-08-30T00:35:13;16.80;63.90
38488;DHT22;57384;51.986;4.458;2023-08-30T00:37:40;16.80;63.80
38488;DHT22;57384;51.986;4.458;2023-08-30T00:40:07;16.80;63.90
38488;DHT22;57384;51.986;4.458;2023-08-30T00:42:33;16.80;63.80
38488;DHT22;57384;51.986;4.458;2023-08-30T00:45:03;16.90;63.90
38488;DHT22;57384;51.986;4.458;2023-08-30T00:47:30;16.90;64.00
38488;DHT22;57384;51.986;4.458;2023-08-30T00:49:57;16.80;64.10
38488;DHT22;57384;51.986;4.458;2023-08-30T00:52:26;16.90;64.00
38488;DHT22;57384;51.986;4.458;2023-08-30T00:54:52;16.90;64.00
38488;DHT22;57384;51.986;4.458;2023-08-30T00:57:22;16.90;64.00
38488;DHT22;57384;51.986;4.458;2023-08-30T00:59:51;16.90;64.10
38488;DHT22;57384;51.986;4.458;2023-08-30T01:02:19;16.90;64.30
38488;DHT22;57384;51.986;4.458;2023-08-30T01:04:46;16.90;64.20
38488;DHT22;57384;51.986;4.458;2023-08-30T01:07:13;16.90;64.40
38488;DHT22;57384;51.986;4.458;2023-08-30T01:09:42;16.90;64.40
38488;DHT22;57384;51.986;4.458;2023-08-30T01:12:31;16.90;64.40
38488;DHT22;57384;51.986;4.458;2023-08-30T01:15:13;16.90;64.50
38488;DHT22;57384;51.986;4.458;2023-08-30T01:17:42;16.90;64.50
38488;DHT22;57384;51.986;4.458;2023-08-30T01:20:09;17.00;64.50
38488;DHT22;57384;51.986;4.458;2023-08-30T01:27:46;16.80;64.70
38488;DHT22;57384;51.986;4.458;2023-08-30T01:30:14;16.80;64.70
38488;DHT22;57384;51.986;4.458;2023-08-30T01:32:41;16.90;64.70
38488;DHT22;57384;51.986;4.458;2023-08-30T01:35:10;16.90;64.90
38488;DHT22;57384;51.986;4.458;2023-08-30T01:37:43;16.90;65.10
38488;DHT22;57384;51.986;4.458;2023-08-30T01:40:11;16.90;65.10
38488;DHT22;57384;51.986;4.458;2023-08-30T01:42:38;16.90;65.10
38488;DHT22;57384;51.986;4.458;2023-08-30T01:45:08;16.90;65.30
38488;DHT22;57384;51.986;4.458;2023-08-30T01:47:35;16.90;65.30
38488;DHT22;57384;51.986;4.458;2023-08-30T01:50:04;16.90;65.30
38488;DHT22;57384;51.986;4.458;2023-08-30T01:52:32;17.00;65.30
38488;DHT22;57384;51.986;4.458;2023-08-30T01:55:00;17.00;65.50
38488;DHT22;57384;51.986;4.458;2023-08-30T01:57:28;17.00;65.60
38488;DHT22;57384;51.986;4.458;2023-08-30T01:59:55;17.00;65.70
38488;DHT22;57384;51.986;4.458;2023-08-30T02:02:22;17.00;65.60
38488;DHT22;57384;51.986;4.458;2023-08-30T02:04:48;17.00;65.70
38488;DHT22;57384;51.986;4.458;2023-08-30T02:07:26;17.00;66.30
38488;DHT22;57384;51.986;4.458;2023-08-30T02:10:02;17.00;65.90
38488;DHT22;57384;51.986;4.458;2023-08-30T02:12:39;17.00;66.00
38488;DHT22;57384;51.986;4.458;2023-08-30T02:15:10;17.10;65.90
38488;DHT22;57384;51.986;4.458;2023-08-30T02:17:38;17.10;65.90
38488;DHT22;57384;51.986;4.458;2023-08-30T02:20:06;17.10;65.90
38488;DHT22;57384;51.986;4.458;2023-08-30T02:22:33;17.00;65.80
38488;DHT22;57384;51.986;4.458;2023-08-30T02:25:00;17.10;65.70
38488;DHT22;57384;51.986;4.458;2023-08-30T02:27:26;17.10;65.60
38488;DHT22;57384;51.986;4.458;2023-08-30T02:29:53;17.10;65.60
38488;DHT22;57384;51.986;4.458;2023-08-30T02:32:41;17.10;65.60
38488;DHT22;57384;51.986;4.458;2023-08-30T02:35:07;17.10;65.60
38488;DHT22;57384;51.986;4.458;2023-08-30T02:37:33;17.10;65.50
38488;DHT22;57384;51.986;4.458;2023-08-30T02:40:03;17.10;65.70
38488;DHT22;57384;51.986;4.458;2023-08-30T02:42:30;17.10;65.70
38488;DHT22;57384;51.986;4.458;2023-08-30T02:44:57;17.10;65.60
38488;DHT22;57384;51.986;4.458;2023-08-30T02:47:26;17.10;65.50
38488;DHT22;57384;51.986;4.458;2023-08-30T02:49:53;17.10;65.50
38488;DHT22;57384;51.986;4.458;2023-08-30T02:52:22;17.10;65.50
38488;DHT22;57384;51.986;4.458;2023-08-30T02:54:48;17.10;65.40
38488;DHT22;57384;51.986;4.458;2023-08-30T02:57:18;17.10;65.50
38488;DHT22;57384;51.986;4.458;2023-08-30T02:59:47;17.00;65.50
38488;DHT22;57384;51.986;4.458;2023-08-30T03:02:14;17.10;65.50
38488;DHT22;57384;51.986;4.458;2023-08-30T03:04:43;17.10;65.50
38488;DHT22;57384;51.986;4.458;2023-08-30T03:07:10;17.10;65.60
38488;DHT22;57384;51.986;4.458;2023-08-30T03:09:39;17.00;65.60
38488;DHT22;57384;51.986;4.458;2023-08-30T03:12:08;17.00;65.70
38488;DHT22;57384;51.986;4.458;2023-08-30T03:14:37;17.00;65.80
38488;DHT22;57384;51.986;4.458;2023-08-30T03:17:04;17.00;65.90
38488;DHT22;57384;51.986;4.458;2023-08-30T03:19:33;17.00;65.80
38488;DHT22;57384;51.986;4.458;2023-08-30T03:22:00;16.90;65.90
38488;DHT22;57384;51.986;4.458;2023-08-30T03:24:29;16.90;65.90
38488;DHT22;57384;51.986;4.458;2023-08-30T03:26:58;16.90;65.90
38488;DHT22;57384;51.986;4.458;2023-08-30T03:29:31;16.90;65.90
38488;DHT22;57384;51.986;4.458;2023-08-30T03:31:58;16.90;65.90
38488;DHT22;57384;51.986;4.458;2023-08-30T03:34:27;16.80;65.90
38488;DHT22;57384;51.986;4.458;2023-08-30T03:36:54;16.80;65.90
38488;DHT22;57384;51.986;4.458;2023-08-30T03:39:21;16.80;66.00
38488;DHT22;57384;51.986;4.458;2023-08-30T03:41:48;16.80;65.90
38488;DHT22;57384;51.986;4.458;2023-08-30T03:44:15;16.80;65.90
38488;DHT22;57384;51.986;4.458;2023-08-30T03:46:41;16.80;65.90
38488;DHT22;57384;51.986;4.458;2023-08-30T03:49:08;16.70;65.90
38488;DHT22;57384;51.986;4.458;2023-08-30T03:51:35;16.70;65.90
38488;DHT22;57384;51.986;4.458;2023-08-30T03:54:01;16.70;66.00
38488;DHT22;57384;51.986;4.458;2023-08-30T03:56:28;16.70;65.90
38488;DHT22;57384;51.986;4.458;2023-08-30T03:58:55;16.70;66.10
38488;DHT22;57384;51.986;4.458;2023-08-30T04:01:21;16.70;66.00
38488;DHT22;57384;51.986;4.458;2023-08-30T04:03:48;16.60;66.10
38488;DHT22;57384;51.986;4.458;2023-08-30T04:06:14;16.60;66.00
38488;DHT22;57384;51.986;4.458;2023-08-30T04:08:41;16.60;66.00
38488;DHT22;57384;51.986;4.458;2023-08-30T04:11:07;16.60;66.10
38488;DHT22;57384;51.986;4.458;2023-08-30T04:13:34;16.60;66.10
38488;DHT22;57384;51.986;4.458;2023-08-30T04:16:00;16.50;66.10
38488;DHT22;57384;51.986;4.458;2023-08-30T04:18:27;16.50;66.10
38488;DHT22;57384;51.986;4.458;2023-08-30T04:20:57;16.50;66.20
38488;DHT22;57384;51.986;4.458;2023-08-30T04:23:24;16.50;66.20
38488;DHT22;57384;51.986;4.458;2023-08-30T04:25:54;16.50;66.20
38488;DHT22;57384;51.986;4.458;2023-08-30T04:28:21;16.40;66.20
38488;DHT22;57384;51.986;4.458;2023-08-30T04:30:47;16.40;66.20
38488;DHT22;57384;51.986;4.458;2023-08-30T04:33:20;16.40;66.20
38488;DHT22;57384;51.986;4.458;2023-08-30T04:35:54;16.40;66.10
38488;DHT22;57384;51.986;4.458;2023-08-30T04:38:21;16.40;66.20
38488;DHT22;57384;51.986;4.458;2023-08-30T04:40:48;16.30;66.10
38488;DHT22;57384;51.986;4.458;2023-08-30T04:43:15;16.40;66.10
38488;DHT22;57384;51.986;4.458;2023-08-30T04:45:41;16.40;66.10
38488;DHT22;57384;51.986;4.458;2023-08-30T04:48:13;16.30;66.10
38488;DHT22;57384;51.986;4.458;2023-08-30T04:50:39;16.30;66.10
38488;DHT22;57384;51.986;4.458;2023-08-30T04:53:06;16.30;66.10
38488;DHT22;57384;51.986;4.458;2023-08-30T04:55:33;16.30;66.10
38488;DHT22;57384;51.986;4.458;2023-08-30T04:57:59;16.30;66.20
38488;DHT22;57384;51.986;4.458;2023-08-30T05:00:26;16.30;66.30
38488;DHT22;57384;51.986;4.458;2023-08-30T05:02:52;16.30;66.40
38488;DHT22;57384;51.986;4.458;2023-08-30T05:05:19;16.30;66.50
38488;DHT22;57384;51.986;4.458;2023-08-30T05:07:46;16.30;66.60
38488;DHT22;57384;51.986;4.458;2023-08-30T05:10:12;16.30;66.70
38488;DHT22;57384;51.986;4.458;2023-08-30T05:12:39;16.30;66.80
38488;DHT22;57384;51.986;4.458;2023-08-30T05:15:06;16.30;66.90
38488;DHT22;57384;51.986;4.458;2023-08-30T05:17:32;16.30;67.10
38488;DHT22;57384;51.986;4.458;2023-08-30T05:19:59;16.30;67.20
38488;DHT22;57384;51.986;4.458;2023-08-30T05:22:26;16.30;67.30
38488;DHT22;57384;51.986;4.458;2023-08-30T05:24:52;16.30;67.50
38488;DHT22;57384;51.986;4.458;2023-08-30T05:27:19;16.30;67.60
38488;DHT22;57384;51.986;4.458;2023-08-30T05:29:46;16.30;67.80
38488;DHT22;57384;51.986;4.458;2023-08-30T05:32:12;16.30;67.80
38488;DHT22;57384;51.986;4.458;2023-08-30T05:34:39;16.30;68.00
38488;DHT22;57384;51.986;4.458;2023-08-30T05:37:05;16.30;68.00
38488;DHT22;57384;51.986;4.458;2023-08-30T05:39:32;16.30;68.20
38488;DHT22;57384;51.986;4.458;2023-08-30T05:42:04;16.30;68.30
38488;DHT22;57384;51.986;4.458;2023-08-30T05:44:31;16.20;68.30
38488;DHT22;57384;51.986;4.458;2023-08-30T05:46:58;16.30;68.50
38488;DHT22;57384;51.986;4.458;2023-08-30T05:49:24;16.30;68.60
38488;DHT22;57384;51.986;4.458;2023-08-30T05:51:51;16.30;68.80
38488;DHT22;57384;51.986;4.458;2023-08-30T05:54:18;16.30;68.80
38488;DHT22;57384;51.986;4.458;2023-08-30T05:56:44;16.30;69.00
38488;DHT22;57384;51.986;4.458;2023-08-30T05:59:14;16.20;69.00
38488;DHT22;57384;51.986;4.458;2023-08-30T06:01:43;16.30;69.20
38488;DHT22;57384;51.986;4.458;2023-08-30T06:04:10;16.30;69.30
38488;DHT22;57384;51.986;4.458;2023-08-30T06:06:37;16.20;69.20
38488;DHT22;57384;51.986;4.458;2023-08-30T06:09:03;16.20;69.40
38488;DHT22;57384;51.986;4.458;2023-08-30T06:11:30;16.30;69.50
38488;DHT22;57384;51.986;4.458;2023-08-30T06:14:11;16.20;69.50
38488;DHT22;57384;51.986;4.458;2023-08-30T06:16:38;16.20;69.90
38488;DHT22;57384;51.986;4.458;2023-08-30T06:19:07;16.20;69.80
38488;DHT22;57384;51.986;4.458;2023-08-30T06:21:33;16.20;70.00
38488;DHT22;57384;51.986;4.458;2023-08-30T06:24:02;16.30;70.20
38488;DHT22;57384;51.986;4.458;2023-08-30T06:26:32;16.20;70.30
38488;DHT22;57384;51.986;4.458;2023-08-30T06:28:59;16.30;70.50
38488;DHT22;57384;51.986;4.458;2023-08-30T06:31:25;16.30;70.60
38488;DHT22;57384;51.986;4.458;2023-08-30T06:33:52;16.20;70.60
38488;DHT22;57384;51.986;4.458;2023-08-30T06:36:22;16.30;70.60
38488;DHT22;57384;51.986;4.458;2023-08-30T06:38:49;16.30;70.80
38488;DHT22;57384;51.986;4.458;2023-08-30T06:41:16;16.30;70.90
38488;DHT22;57384;51.986;4.458;2023-08-30T06:43:42;16.30;71.00
38488;DHT22;57384;51.986;4.458;2023-08-30T06:46:12;16.30;71.00
38488;DHT22;57384;51.986;4.458;2023-08-30T06:48:41;16.30;71.10
38488;DHT22;57384;51.986;4.458;2023-08-30T06:51:08;16.30;71.30
38488;DHT22;57384;51.986;4.458;2023-08-30T06:53:34;16.30;71.30
38488;DHT22;57384;51.986;4.458;2023-08-30T06:56:01;16.30;71.20
38488;DHT22;57384;51.986;4.458;2023-08-30T06:58:28;16.30;71.30
38488;DHT22;57384;51.986;4.458;2023-08-30T07:00:57;16.30;71.40
38488;DHT22;57384;51.986;4.458;2023-08-30T07:03:24;16.40;71.60
38488;DHT22;57384;51.986;4.458;2023-08-30T07:05:55;16.40;71.70
38488;DHT22;57384;51.986;4.458;2023-08-30T07:08:25;16.40;71.70
38488;DHT22;57384;51.986;4.458;2023-08-30T07:10:52;16.40;71.70
38488;DHT22;57384;51.986;4.458;2023-08-30T07:13:21;16.40;71.80
38488;DHT22;57384;51.986;4.458;2023-08-30T07:15:48;16.40;71.90
38488;DHT22;57384;51.986;4.458;2023-08-30T07:18:26;16.50;72.10
38488;DHT22;57384;51.986;4.458;2023-08-30T07:20:53;16.50;72.10
38488;DHT22;57384;51.986;4.458;2023-08-30T07:23:20;16.50;72.10
38488;DHT22;57384;51.986;4.458;2023-08-30T07:25:46;16.50;72.30
38488;DHT22;57384;51.986;4.458;2023-08-30T07:28:13;16.50;72.30
38488;DHT22;57384;51.986;4.458;2023-08-30T07:30:39;16.50;72.30
38488;DHT22;57384;51.986;4.458;2023-08-30T07:33:06;16.60;72.40
38488;DHT22;57384;51.986;4.458;2023-08-30T07:35:32;16.60;72.40
38488;DHT22;57384;51.986;4.458;2023-08-30T07:37:59;16.60;72.40
38488;DHT22;57384;51.986;4.458;2023-08-30T07:40:26;16.60;72.20
38488;DHT22;57384;51.986;4.458;2023-08-30T07:42:53;16.70;72.20
38488;DHT22;57384;51.986;4.458;2023-08-30T07:45:19;16.70;72.20
38488;DHT22;57384;51.986;4.458;2023-08-30T07:47:46;16.80;72.20
38488;DHT22;57384;51.986;4.458;2023-08-30T07:50:12;16.70;72.00
38488;DHT22;57384;51.986;4.458;2023-08-30T07:52:39;16.80;72.10
38488;DHT22;57384;51.986;4.458;2023-08-30T07:55:05;16.80;72.10
38488;DHT22;57384;51.986;4.458;2023-08-30T07:57:32;16.80;72.10
38488;DHT22;57384;51.986;4.458;2023-08-30T07:59:59;16.80;72.20
38488;DHT22;57384;51.986;4.458;2023-08-30T08:02:25;16.90;72.30
38488;DHT22;57384;51.986;4.458;2023-08-30T08:04:52;16.90;72.40
38488;DHT22;57384;51.986;4.458;2023-08-30T08:07:18;16.90;72.30
38488;DHT22;57384;51.986;4.458;2023-08-30T08:09:45;16.90;72.30
38488;DHT22;57384;51.986;4.458;2023-08-30T08:12:11;16.90;72.40
38488;DHT22;57384;51.986;4.458;2023-08-30T08:14:38;16.90;72.30
38488;DHT22;57384;51.986;4.458;2023-08-30T08:17:04;17.00;72.50
38488;DHT22;57384;51.986;4.458;2023-08-30T08:19:33;17.00;72.50
38488;DHT22;57384;51.986;4.458;2023-08-30T08:21:59;17.00;72.80
38488;DHT22;57384;51.986;4.458;2023-08-30T08:24:26;17.10;72.90
38488;DHT22;57384;51.986;4.458;2023-08-30T08:26:52;17.10;73.00
38488;DHT22;57384;51.986;4.458;2023-08-30T08:29:19;17.10;73.10
38488;DHT22;57384;51.986;4.458;2023-08-30T08:31:46;17.20;73.10
38488;DHT22;57384;51.986;4.458;2023-08-30T08:34:13;17.20;73.00
38488;DHT22;57384;51.986;4.458;2023-08-30T08:36:41;17.30;73.20
38488;DHT22;57384;51.986;4.458;2023-08-30T08:39:08;17.30;73.50
38488;DHT22;57384;51.986;4.458;2023-08-30T08:41:44;17.40;73.50
38488;DHT22;57384;51.986;4.458;2023-08-30T08:44:11;17.50;73.20
38488;DHT22;57384;51.986;4.458;2023-08-30T08:46:39;17.60;73.00
38488;DHT22;57384;51.986;4.458;2023-08-30T08:49:11;17.70;72.90
38488;DHT22;57384;51.986;4.458;2023-08-30T08:51:37;17.80;72.70
38488;DHT22;57384;51.986;4.458;2023-08-30T08:54:05;18.00;72.40
38488;DHT22;57384;51.986;4.458;2023-08-30T08:56:32;18.10;72.20
38488;DHT22;57384;51.986;4.458;2023-08-30T08:58:59;18.20;72.10
38488;DHT22;57384;51.986;4.458;2023-08-30T09:01:26;18.30;72.00
38488;DHT22;57384;51.986;4.458;2023-08-30T09:03:53;18.40;71.90
38488;DHT22;57384;51.986;4.458;2023-08-30T09:06:21;18.50;71.90
38488;DHT22;57384;51.986;4.458;2023-08-30T09:08:48;18.60;71.70
38488;DHT22;57384;51.986;4.458;2023-08-30T09:11:14;18.80;71.70
38488;DHT22;57384;51.986;4.458;2023-08-30T09:13:42;18.90;71.50
38488;DHT22;57384;51.986;4.458;2023-08-30T09:16:13;19.00;71.40
38488;DHT22;57384;51.986;4.458;2023-08-30T09:18:41;19.10;71.40
38488;DHT22;57384;51.986;4.458;2023-08-30T09:21:11;19.20;71.10
38488;DHT22;57384;51.986;4.458;2023-08-30T09:23:38;19.30;71.10
38488;DHT22;57384;51.986;4.458;2023-08-30T09:26:05;19.50;70.70
38488;DHT22;57384;51.986;4.458;2023-08-30T09:28:41;19.60;70.50
38488;DHT22;57384;51.986;4.458;2023-08-30T09:31:07;19.70;70.10
38488;DHT22;57384;51.986;4.458;2023-08-30T09:33:45;19.90;69.90
38488;DHT22;57384;51.986;4.458;2023-08-30T09:36:11;20.00;69.70
38488;DHT22;57384;51.986;4.458;2023-08-30T09:38:38;20.20;69.50
38488;DHT22;57384;51.986;4.458;2023-08-30T09:41:05;20.30;69.20
38488;DHT22;57384;51.986;4.458;2023-08-30T09:43:32;20.50;68.80
38488;DHT22;57384;51.986;4.458;2023-08-30T09:46:02;20.60;68.80
38488;DHT22;57384;51.986;4.458;2023-08-30T09:48:29;20.70;68.70
38488;DHT22;57384;51.986;4.458;2023-08-30T09:50:58;20.70;68.40
38488;DHT22;57384;51.986;4.458;2023-08-30T09:53:25;20.80;68.40
38488;DHT22;57384;51.986;4.458;2023-08-30T09:55:52;20.80;68.20
38488;DHT22;57384;51.986;4.458;2023-08-30T09:58:23;20.90;68.10
38488;DHT22;57384;51.986;4.458;2023-08-30T10:00:50;20.90;67.60
38488;DHT22;57384;51.986;4.458;2023-08-30T10:03:17;21.00;67.50
38488;DHT22;57384;51.986;4.458;2023-08-30T10:05:44;21.00;67.50
38488;DHT22;57384;51.986;4.458;2023-08-30T10:08:14;21.00;67.60
38488;DHT22;57384;51.986;4.458;2023-08-30T10:10:40;20.90;67.00
38488;DHT22;57384;51.986;4.458;2023-08-30T10:13:13;20.90;66.90
38488;DHT22;57384;51.986;4.458;2023-08-30T10:15:44;20.90;66.90
38488;DHT22;57384;51.986;4.458;2023-08-30T10:18:15;20.90;67.00
38488;DHT22;57384;51.986;4.458;2023-08-30T10:20:44;20.80;66.90
38488;DHT22;57384;51.986;4.458;2023-08-30T10:23:11;20.90;67.00
38488;DHT22;57384;51.986;4.458;2023-08-30T10:25:39;20.90;67.00
38488;DHT22;57384;51.986;4.458;2023-08-30T10:28:07;20.80;66.90
38488;DHT22;57384;51.986;4.458;2023-08-30T10:30:34;20.80;66.90
38488;DHT22;57384;51.986;4.458;2023-08-30T10:33:01;20.80;66.90
38488;DHT22;57384;51.986;4.458;2023-08-30T10:35:27;20.80;66.90
38488;DHT22;57384;51.986;4.458;2023-08-30T10:37:55;20.80;66.80
38488;DHT22;57384;51.986;4.458;2023-08-30T10:40:25;20.80;66.70
38488;DHT22;57384;51.986;4.458;2023-08-30T10:43:04;20.80;66.30
38488;DHT22;57384;51.986;4.458;2023-08-30T10:45:31;20.80;65.90
38488;DHT22;57384;51.986;4.458;2023-08-30T10:47:59;20.90;65.70
38488;DHT22;57384;51.986;4.458;2023-08-30T10:50:30;20.90;65.50
38488;DHT22;57384;51.986;4.458;2023-08-30T10:52:59;20.90;65.10
38488;DHT22;57384;51.986;4.458;2023-08-30T10:55:26;20.80;64.80
38488;DHT22;57384;51.986;4.458;2023-08-30T10:58:03;20.90;64.70
38488;DHT22;57384;51.986;4.458;2023-08-30T11:00:30;20.90;64.40
38488;DHT22;57384;51.986;4.458;2023-08-30T11:02:57;20.90;64.50
38488;DHT22;57384;51.986;4.458;2023-08-30T11:05:25;20.90;64.30
38488;DHT22;57384;51.986;4.458;2023-08-30T11:07:52;20.90;64.20
38488;DHT22;57384;51.986;4.458;2023-08-30T11:10:19;20.90;64.10
38488;DHT22;57384;51.986;4.458;2023-08-30T11:12:47;21.00;64.10
38488;DHT22;57384;51.986;4.458;2023-08-30T11:15:14;21.00;64.00
38488;DHT22;57384;51.986;4.458;2023-08-30T11:17:42;21.00;64.10
38488;DHT22;57384;51.986;4.458;2023-08-30T11:20:10;21.00;64.40
38488;DHT22;57384;51.986;4.458;2023-08-30T11:22:42;21.10;64.40
38488;DHT22;57384;51.986;4.458;2023-08-30T11:25:11;21.10;64.00
38488;DHT22;57384;51.986;4.458;2023-08-30T11:27:38;21.20;64.00
38488;DHT22;57384;51.986;4.458;2023-08-30T11:30:06;21.30;63.60
38488;DHT22;57384;51.986;4.458;2023-08-30T11:32:34;21.40;63.30
38488;DHT22;57384;51.986;4.458;2023-08-30T11:35:01;21.50;63.30
38488;DHT22;57384;51.986;4.458;2023-08-30T11:37:28;21.50;63.00
38488;DHT22;57384;51.986;4.458;2023-08-30T11:39:58;21.70;63.00
38488;DHT22;57384;51.986;4.458;2023-08-30T11:42:25;21.90;62.80
38488;DHT22;57384;51.986;4.458;2023-08-30T11:44:52;22.00;62.80
38488;DHT22;57384;51.986;4.458;2023-08-30T11:47:23;22.10;62.70
38488;DHT22;57384;51.986;4.458;2023-08-30T11:49:51;22.30;62.50
38488;DHT22;57384;51.986;4.458;2023-08-30T11:52:19;22.40;62.10
38488;DHT22;57384;51.986;4.458;2023-08-30T11:54:50;22.50;62.00
38488;DHT22;57384;51.986;4.458;2023-08-30T11:57:16;22.70;61.90
38488;DHT22;57384;51.986;4.458;2023-08-30T11:59:43;22.80;61.80
38488;DHT22;57384;51.986;4.458;2023-08-30T12:02:12;23.00;61.50
38488;DHT22;57384;51.986;4.458;2023-08-30T12:04:42;23.10;61.10
38488;DHT22;57384;51.986;4.458;2023-08-30T12:07:09;23.30;60.80
38488;DHT22;57384;51.986;4.458;2023-08-30T12:09:39;23.50;60.40
38488;DHT22;57384;51.986;4.458;2023-08-30T12:12:06;23.60;59.90
38488;DHT22;57384;51.986;4.458;2023-08-30T12:14:35;23.70;59.70
38488;DHT22;57384;51.986;4.458;2023-08-30T12:17:03;23.80;59.70
38488;DHT22;57384;51.986;4.458;2023-08-30T12:19:31;23.90;59.70
38488;DHT22;57384;51.986;4.458;2023-08-30T12:22:07;23.90;59.60
38488;DHT22;57384;51.986;4.458;2023-08-30T12:24:46;23.90;59.40
38488;DHT22;57384;51.986;4.458;2023-08-30T12:27:13;23.90;59.30
38488;DHT22;57384;51.986;4.458;2023-08-30T12:29:40;23.90;59.20
38488;DHT22;57384;51.986;4.458;2023-08-30T12:32:07;23.90;59.30
38488;DHT22;57384;51.986;4.458;2023-08-30T12:34:34;23.90;59.20
38488;DHT22;57384;51.986;4.458;2023-08-30T12:37:01;23.90;59.30
38488;DHT22;57384;51.986;4.458;2023-08-30T12:39:28;23.90;59.00
38488;DHT22;57384;51.986;4.458;2023-08-30T12:41:54;24.00;58.80
38488;DHT22;57384;51.986;4.458;2023-08-30T12:44:21;24.00;58.60
38488;DHT22;57384;51.986;4.458;2023-08-30T12:46:47;24.10;58.40
38488;DHT22;57384;51.986;4.458;2023-08-30T12:49:14;24.10;57.90
38488;DHT22;57384;51.986;4.458;2023-08-30T12:51:40;24.20;57.70
38488;DHT22;57384;51.986;4.458;2023-08-30T12:54:07;24.20;57.80
38488;DHT22;57384;51.986;4.458;2023-08-30T12:56:33;24.30;57.70
38488;DHT22;57384;51.986;4.458;2023-08-30T12:59:00;24.40;57.70
38488;DHT22;57384;51.986;4.458;2023-08-30T13:01:27;24.50;57.60
38488;DHT22;57384;51.986;4.458;2023-08-30T13:03:53;24.60;57.30
38488;DHT22;57384;51.986;4.458;2023-08-30T13:06:20;24.70;56.90
38488;DHT22;57384;51.986;4.458;2023-08-30T13:08:46;24.80;56.70
38488;DHT22;57384;51.986;4.458;2023-08-30T13:11:13;24.90;56.20
38488;DHT22;57384;51.986;4.458;2023-08-30T13:13:42;25.10;55.90
38488;DHT22;57384;51.986;4.458;2023-08-30T13:16:09;25.10;55.40
38488;DHT22;57384;51.986;4.458;2023-08-30T13:18:35;25.20;55.10
38488;DHT22;57384;51.986;4.458;2023-08-30T13:21:02;25.30;55.10
38488;DHT22;57384;51.986;4.458;2023-08-30T13:23:28;25.30;54.80
38488;DHT22;57384;51.986;4.458;2023-08-30T13:25:55;25.30;54.40
38488;DHT22;57384;51.986;4.458;2023-08-30T13:28:21;25.30;54.40
38488;DHT22;57384;51.986;4.458;2023-08-30T13:30:48;25.30;54.60
38488;DHT22;57384;51.986;4.458;2023-08-30T13:33:14;25.30;54.50
38488;DHT22;57384;51.986;4.458;2023-08-30T13:35:41;25.40;54.40
38488;DHT22;57384;51.986;4.458;2023-08-30T13:38:08;25.40;54.50
38488;DHT22;57384;51.986;4.458;2023-08-30T13:40:34;25.40;54.30
38488;DHT22;57384;51.986;4.458;2023-08-30T13:43:01;25.40;54.00
38488;DHT22;57384;51.986;4.458;2023-08-30T13:45:27;25.40;54.10
38488;DHT22;57384;51.986;4.458;2023-08-30T13:47:54;25.40;53.80
38488;DHT22;57384;51.986;4.458;2023-08-30T13:50:20;25.40;53.80
38488;DHT22;57384;51.986;4.458;2023-08-30T13:52:47;25.40;53.50
38488;DHT22;57384;51.986;4.458;2023-08-30T13:55:20;25.40;53.30
38488;DHT22;57384;51.986;4.458;2023-08-30T13:57:46;25.30;53.00
38488;DHT22;57384;51.986;4.458;2023-08-30T14:00:13;25.20;53.20
38488;DHT22;57384;51.986;4.458;2023-08-30T14:02:40;25.10;53.20
38488;DHT22;57384;51.986;4.458;2023-08-30T14:05:07;25.10;53.50
38488;DHT22;57384;51.986;4.458;2023-08-30T14:07:34;25.00;53.40
38488;DHT22;57384;51.986;4.458;2023-08-30T14:10:00;24.90;53.60
38488;DHT22;57384;51.986;4.458;2023-08-30T14:12:27;24.80;53.60
38488;DHT22;57384;51.986;4.458;2023-08-30T14:14:53;24.70;53.80
38488;DHT22;57384;51.986;4.458;2023-08-30T14:17:20;24.70;53.80
38488;DHT22;57384;51.986;4.458;2023-08-30T14:19:46;24.60;53.80
38488;DHT22;57384;51.986;4.458;2023-08-30T14:22:13;24.50;53.80
38488;DHT22;57384;51.986;4.458;2023-08-30T14:24:39;24.50;54.00
38488;DHT22;57384;51.986;4.458;2023-08-30T14:27:06;24.40;53.90
38488;DHT22;57384;51.986;4.458;2023-08-30T14:29:33;24.30;54.00
38488;DHT22;57384;51.986;4.458;2023-08-30T14:31:59;24.30;53.80
38488;DHT22;57384;51.986;4.458;2023-08-30T14:34:27;24.10;53.60
38488;DHT22;57384;51.986;4.458;2023-08-30T14:36:53;24.10;53.50
38488;DHT22;57384;51.986;4.458;2023-08-30T14:39:20;24.10;53.50
38488;DHT22;57384;51.986;4.458;2023-08-30T14:41:47;24.00;53.30
38488;DHT22;57384;51.986;4.458;2023-08-30T14:44:13;23.90;53.10
38488;DHT22;57384;51.986;4.458;2023-08-30T14:46:40;23.90;53.00
38488;DHT22;57384;51.986;4.458;2023-08-30T14:49:06;23.80;53.00
38488;DHT22;57384;51.986;4.458;2023-08-30T14:51:35;23.70;52.90
38488;DHT22;57384;51.986;4.458;2023-08-30T14:54:02;23.60;52.90
38488;DHT22;57384;51.986;4.458;2023-08-30T14:56:29;23.60;53.60
38488;DHT22;57384;51.986;4.458;2023-08-30T14:58:56;23.50;52.90
38488;DHT22;57384;51.986;4.458;2023-08-30T15:01:22;23.40;52.90
38488;DHT22;57384;51.986;4.458;2023-08-30T15:03:49;23.30;52.90
38488;DHT22;57384;51.986;4.458;2023-08-30T15:06:15;23.30;53.10
38488;DHT22;57384;51.986;4.458;2023-08-30T15:08:42;23.20;53.10
38488;DHT22;57384;51.986;4.458;2023-08-30T15:11:12;23.10;53.20
38488;DHT22;57384;51.986;4.458;2023-08-30T15:13:47;23.00;53.20
38488;DHT22;57384;51.986;4.458;2023-08-30T15:16:14;23.00;53.30
38488;DHT22;57384;51.986;4.458;2023-08-30T15:18:41;22.90;53.30
38488;DHT22;57384;51.986;4.458;2023-08-30T15:21:07;22.90;53.30
38488;DHT22;57384;51.986;4.458;2023-08-30T15:23:34;22.70;53.30
38488;DHT22;57384;51.986;4.458;2023-08-30T15:26:03;22.70;53.30
38488;DHT22;57384;51.986;4.458;2023-08-30T15:28:30;22.60;53.30
38488;DHT22;57384;51.986;4.458;2023-08-30T15:30:57;22.50;54.00
38488;DHT22;57384;51.986;4.458;2023-08-30T15:33:23;22.50;53.40
38488;DHT22;57384;51.986;4.458;2023-08-30T15:35:50;22.50;53.50
38488;DHT22;57384;51.986;4.458;2023-08-30T15:38:16;22.30;53.50